Main page
METAR-TAF:

METAR-TAF

Airports :

Tunis, Tunisia

Tunis–Carthage International Airport

latitude: 36-50N, longitude: 010-14E, elevation: 3 m

Current weather observation

The report was made 35 minutes ago, at 05:30 UTC
Wind 5 kt from the West/Northwest
Temperature 17°C
Humidity 68%
Pressure 1017 hPa
Visibility 10 km or more
Scattered clouds at a height of 2600 ft

METAR: DTTA 240530Z 30005KT 9999 SCT026 17/11 Q1017 NOSIG

Time: 07:05 (06:05 UTC)

Forecast

The report was made 1 hour and 5 minutes ago, at 05:00 UTC
Forecast valid from 24 at 06 UTC to 25 at 06 UTC
Wind 15 kt from the Northwest with gusts up to 25 kt
Visibility 10 km or more
Scattered clouds at a height of 2600 ft

TAF: DTTA 240500Z 2406/2506 32015G25KT 9999 SCT026

Weather observations and forecasts of more than 4000 airports (METAR and TAF reports).

The available stations are represented by yellow and red dots on the map.

Hover mouse over dot to see the name of the station.

Then click to see weather observations and forecasts.

To change the map : click on the green buttons with a black cross to zoom in, on the green button with a dash to zoom out, or on the green arrows for adjacent maps.


METAR-TAF: